EXS3JA EGBB-GCLP
Flight info
| Callsign | EXS3JA |
|---|---|
| Flight time | 4h 19m |
| Altitude | 37000 |
| Route | LUXTO N92 ZESPE DCT PACSE DCT TONQU DCT SALCO DCT ERWAN DCT BALDA DCT BATAX DCT ORVED DCT ODPAK DCT OSLAD UR724 IBALU UN857 TERTO |
| Aircraft | A21N/M-SDE2E3FGHIRWXY/LB1 |
Departure
| Time | 2026-04-29 15:35 |
|---|---|
| Airport | Birmingham Airport (EGBB) |
Arrival
| Time | 2026-04-29 19:54 |
|---|---|
| Airport | Gran Canaria Airport (GCLP) |
| Time | Latitude | Longitude | Altitude | Speed | Heading |
|---|---|---|---|---|---|
| 2026-04-29 15:15 | 52.45036 | -1.73321 | 326 ft | 0 kts | 326° |
| 2026-04-29 15:23 | 52.45032 | -1.73316 | 325 ft | 4 kts | 326° |
| 2026-04-29 15:23 | 52.45014 | -1.73295 | 324 ft | 4 kts | 311° |
| 2026-04-29 15:23 | 52.45007 | -1.73267 | 326 ft | 4 kts | 260° |
| 2026-04-29 15:23 | 52.45017 | -1.73228 | 324 ft | 3 kts | 236° |
| 2026-04-29 15:24 | 52.45007 | -1.73250 | 326 ft | 4 kts | 236° |
| 2026-04-29 15:24 | 52.45004 | -1.73259 | 327 ft | 0 kts | 236° |
| 2026-04-29 15:27 | 52.45001 | -1.73266 | 328 ft | 2 kts | 236° |
| 2026-04-29 15:27 | 52.44972 | -1.73336 | 326 ft | 14 kts | 236° |
| 2026-04-29 15:28 | 52.44915 | -1.73473 | 326 ft | 12 kts | 236° |
| 2026-04-29 15:28 | 52.44899 | -1.73563 | 326 ft | 14 kts | 281° |
| 2026-04-29 15:28 | 52.45000 | -1.73707 | 326 ft | 11 kts | 326° |
| 2026-04-29 15:28 | 52.45076 | -1.73765 | 328 ft | 14 kts | 346° |
| 2026-04-29 15:29 | 52.45166 | -1.73850 | 327 ft | 16 kts | 325° |
| 2026-04-29 15:29 | 52.45343 | -1.74149 | 326 ft | 21 kts | 296° |
| 2026-04-29 15:30 | 52.45482 | -1.74582 | 326 ft | 19 kts | 322° |
| 2026-04-29 15:30 | 52.45594 | -1.74709 | 324 ft | 20 kts | 327° |
| 2026-04-29 15:30 | 52.45711 | -1.74837 | 317 ft | 21 kts | 326° |
| 2026-04-29 15:30 | 52.45836 | -1.74976 | 312 ft | 22 kts | 326° |
| 2026-04-29 15:31 | 52.45969 | -1.75125 | 311 ft | 24 kts | 326° |
| 2026-04-29 15:31 | 52.46112 | -1.75284 | 309 ft | 26 kts | 326° |
| 2026-04-29 15:31 | 52.46263 | -1.75452 | 308 ft | 27 kts | 326° |
| 2026-04-29 15:31 | 52.46425 | -1.75630 | 307 ft | 29 kts | 326° |
| 2026-04-29 15:32 | 52.46576 | -1.75798 | 310 ft | 20 kts | 326° |
| 2026-04-29 15:32 | 52.46606 | -1.75832 | 311 ft | 8 kts | 326° |
| 2026-04-29 15:32 | 52.46622 | -1.75945 | 311 ft | 5 kts | 236° |
| 2026-04-29 15:32 | 52.46620 | -1.75951 | 310 ft | 0 kts | 236° |
| 2026-04-29 15:33 | 52.46620 | -1.75952 | 311 ft | 1 kts | 236° |
| 2026-04-29 15:33 | 52.46591 | -1.76021 | 309 ft | 13 kts | 236° |
| 2026-04-29 15:34 | 52.46508 | -1.76048 | 313 ft | 17 kts | 147° |
| 2026-04-29 15:34 | 52.46385 | -1.75913 | 314 ft | 37 kts | 146° |
| 2026-04-29 15:34 | 52.45936 | -1.75412 | 321 ft | 117 kts | 145° |
| 2026-04-29 15:34 | 52.45084 | -1.74468 | 353 ft | 175 kts | 143° |
| 2026-04-29 15:35 | 52.44110 | -1.73429 | 1259 ft | 157 kts | 142° |
| 2026-04-29 15:35 | 52.43178 | -1.72441 | 1994 ft | 168 kts | 139° |
| 2026-04-29 15:35 | 52.42165 | -1.71293 | 2632 ft | 187 kts | 139° |
| 2026-04-29 15:35 | 52.40976 | -1.70087 | 3152 ft | 217 kts | 150° |
| 2026-04-29 15:36 | 52.39397 | -1.69540 | 3824 ft | 249 kts | 166° |
| 2026-04-29 15:36 | 52.37607 | -1.69231 | 4841 ft | 265 kts | 170° |
| 2026-04-29 15:36 | 52.35758 | -1.69806 | 6063 ft | 281 kts | 198° |
| 2026-04-29 15:36 | 52.34167 | -1.71751 | 7326 ft | 291 kts | 220° |
| 2026-04-29 15:37 | 52.32786 | -1.74207 | 8553 ft | 295 kts | 223° |
| 2026-04-29 15:37 | 52.31870 | -1.75863 | 9325 ft | 298 kts | 223° |
| 2026-04-29 15:37 | 52.30244 | -1.78739 | 10637 ft | 304 kts | 222° |
| 2026-04-29 15:37 | 52.28738 | -1.81352 | 11349 ft | 327 kts | 222° |
| 2026-04-29 15:38 | 52.27126 | -1.84119 | 12058 ft | 345 kts | 223° |
| 2026-04-29 15:38 | 52.25448 | -1.86991 | 13012 ft | 352 kts | 222° |
| 2026-04-29 15:38 | 52.23752 | -1.89882 | 14023 ft | 357 kts | 222° |
| 2026-04-29 15:38 | 52.22593 | -1.91852 | 14688 ft | 361 kts | 222° |
| 2026-04-29 15:39 | 52.20836 | -1.94832 | 15641 ft | 366 kts | 221° |
| 2026-04-29 15:39 | 52.19056 | -1.97844 | 16572 ft | 371 kts | 221° |
| 2026-04-29 15:39 | 52.17243 | -2.00903 | 17470 ft | 376 kts | 221° |
| 2026-04-29 15:39 | 52.15415 | -2.03986 | 18326 ft | 382 kts | 221° |
| 2026-04-29 15:40 | 52.13539 | -2.07041 | 19171 ft | 385 kts | 218° |
| 2026-04-29 15:40 | 52.11572 | -2.10035 | 19986 ft | 390 kts | 218° |
| 2026-04-29 15:40 | 52.09569 | -2.13055 | 20763 ft | 394 kts | 218° |
| 2026-04-29 15:40 | 52.07544 | -2.16107 | 21539 ft | 398 kts | 218° |
| 2026-04-29 15:41 | 52.05505 | -2.19176 | 22298 ft | 402 kts | 218° |
| 2026-04-29 15:41 | 52.03440 | -2.22282 | 23033 ft | 406 kts | 218° |
| 2026-04-29 15:41 | 52.01357 | -2.25405 | 23731 ft | 410 kts | 218° |
| 2026-04-29 15:41 | 51.99255 | -2.28554 | 24403 ft | 413 kts | 218° |
| 2026-04-29 15:42 | 51.97133 | -2.31733 | 25102 ft | 416 kts | 218° |
| 2026-04-29 15:42 | 51.95003 | -2.34924 | 25802 ft | 418 kts | 218° |
| 2026-04-29 15:42 | 51.92863 | -2.38125 | 26482 ft | 420 kts | 219° |
| 2026-04-29 15:42 | 51.90715 | -2.41334 | 27144 ft | 421 kts | 219° |
| 2026-04-29 15:43 | 51.88553 | -2.44556 | 27759 ft | 422 kts | 220° |
| 2026-04-29 15:43 | 51.86386 | -2.47780 | 28344 ft | 424 kts | 220° |
| 2026-04-29 15:43 | 51.84211 | -2.51008 | 28911 ft | 425 kts | 220° |
| 2026-04-29 15:43 | 51.82021 | -2.54231 | 29457 ft | 426 kts | 219° |
| 2026-04-29 15:44 | 51.79731 | -2.57274 | 30025 ft | 426 kts | 217° |
| 2026-04-29 15:44 | 51.77405 | -2.60280 | 30529 ft | 428 kts | 217° |
| 2026-04-29 15:44 | 51.75068 | -2.63291 | 30965 ft | 431 kts | 217° |
| 2026-04-29 15:44 | 51.72716 | -2.66323 | 31325 ft | 435 kts | 216° |
| 2026-04-29 15:45 | 51.70341 | -2.69379 | 31683 ft | 439 kts | 216° |
| 2026-04-29 15:45 | 51.67944 | -2.72464 | 32033 ft | 443 kts | 216° |
| 2026-04-29 15:45 | 51.65525 | -2.75570 | 32370 ft | 446 kts | 215° |
| 2026-04-29 15:45 | 51.63097 | -2.78692 | 32686 ft | 449 kts | 215° |
| 2026-04-29 15:46 | 51.60640 | -2.81836 | 33059 ft | 450 kts | 215° |
| 2026-04-29 15:46 | 51.58188 | -2.84980 | 33456 ft | 451 kts | 214° |
| 2026-04-29 15:46 | 51.55736 | -2.88128 | 33833 ft | 452 kts | 214° |
| 2026-04-29 15:46 | 51.53303 | -2.91238 | 34218 ft | 452 kts | 214° |
| 2026-04-29 15:47 | 51.50838 | -2.94373 | 34591 ft | 452 kts | 214° |
| 2026-04-29 15:47 | 51.48370 | -2.97501 | 34971 ft | 451 kts | 214° |
| 2026-04-29 15:47 | 51.45900 | -3.00634 | 35310 ft | 451 kts | 214° |
| 2026-04-29 15:47 | 51.43431 | -3.03766 | 35663 ft | 451 kts | 214° |
| 2026-04-29 15:48 | 51.40976 | -3.06884 | 36015 ft | 450 kts | 214° |
| 2026-04-29 15:48 | 51.38392 | -3.09671 | 36315 ft | 445 kts | 205° |
| 2026-04-29 15:48 | 51.35557 | -3.11570 | 36578 ft | 439 kts | 193° |
| 2026-04-29 15:48 | 51.32583 | -3.12527 | 36866 ft | 435 kts | 185° |
| 2026-04-29 15:49 | 51.29584 | -3.13122 | 37155 ft | 434 kts | 184° |
| 2026-04-29 15:49 | 51.23624 | -3.14250 | 37213 ft | 428 kts | 184° |
| 2026-04-29 15:50 | 51.17716 | -3.15437 | 37198 ft | 427 kts | 184° |
| 2026-04-29 15:50 | 51.11866 | -3.16628 | 37191 ft | 426 kts | 184° |
| 2026-04-29 15:51 | 51.05986 | -3.17815 | 37184 ft | 425 kts | 184° |
| 2026-04-29 15:51 | 51.00112 | -3.18998 | 37177 ft | 424 kts | 185° |
| 2026-04-29 15:52 | 50.94246 | -3.20181 | 37170 ft | 425 kts | 185° |
| 2026-04-29 15:52 | 50.88414 | -3.21355 | 37164 ft | 424 kts | 185° |
| 2026-04-29 15:53 | 50.82544 | -3.22533 | 37152 ft | 424 kts | 185° |
| 2026-04-29 15:53 | 50.76679 | -3.23709 | 37149 ft | 423 kts | 185° |
| 2026-04-29 15:54 | 50.70832 | -3.24884 | 37142 ft | 423 kts | 185° |
| 2026-04-29 15:54 | 50.64987 | -3.26044 | 37136 ft | 423 kts | 185° |
| 2026-04-29 15:55 | 50.59188 | -3.27196 | 37139 ft | 422 kts | 185° |
| 2026-04-29 15:55 | 50.53359 | -3.28344 | 37140 ft | 422 kts | 185° |
| 2026-04-29 15:56 | 50.47524 | -3.29496 | 37140 ft | 422 kts | 185° |
| 2026-04-29 15:56 | 50.41694 | -3.30648 | 37140 ft | 422 kts | 185° |
| 2026-04-29 15:57 | 50.35895 | -3.32158 | 37134 ft | 423 kts | 190° |
| 2026-04-29 15:57 | 50.30131 | -3.34119 | 37131 ft | 423 kts | 190° |
| 2026-04-29 15:58 | 50.24380 | -3.36065 | 37126 ft | 422 kts | 190° |
| 2026-04-29 15:58 | 50.18671 | -3.37984 | 37121 ft | 421 kts | 190° |
| 2026-04-29 15:59 | 50.12930 | -3.39901 | 37111 ft | 421 kts | 190° |
| 2026-04-29 15:59 | 50.07195 | -3.41821 | 37103 ft | 421 kts | 190° |
| 2026-04-29 16:00 | 50.01462 | -3.43740 | 37084 ft | 421 kts | 190° |
| 2026-04-29 16:00 | 49.95732 | -3.45664 | 37073 ft | 419 kts | 191° |
| 2026-04-29 16:01 | 49.90037 | -3.47559 | 37065 ft | 418 kts | 191° |
| 2026-04-29 16:01 | 49.84343 | -3.49451 | 37060 ft | 418 kts | 191° |
| 2026-04-29 16:02 | 49.78682 | -3.51315 | 37049 ft | 418 kts | 191° |
| 2026-04-29 16:02 | 49.73146 | -3.53216 | 37049 ft | 419 kts | 193° |
| 2026-04-29 16:03 | 49.67566 | -3.55873 | 37038 ft | 419 kts | 196° |
| 2026-04-29 16:03 | 49.61986 | -3.58575 | 37032 ft | 419 kts | 195° |
| 2026-04-29 16:04 | 49.56412 | -3.61235 | 37028 ft | 419 kts | 195° |
| 2026-04-29 16:04 | 49.50899 | -3.63865 | 37019 ft | 420 kts | 195° |
| 2026-04-29 16:05 | 49.45289 | -3.66545 | 37020 ft | 419 kts | 195° |
| 2026-04-29 16:05 | 49.39724 | -3.69192 | 37011 ft | 419 kts | 195° |
| 2026-04-29 16:06 | 49.34140 | -3.71838 | 37010 ft | 418 kts | 195° |
| 2026-04-29 16:06 | 49.28612 | -3.74451 | 37007 ft | 418 kts | 195° |
| 2026-04-29 16:07 | 49.23046 | -3.77068 | 37001 ft | 418 kts | 195° |
| 2026-04-29 16:07 | 49.17849 | -3.79511 | 37001 ft | 418 kts | 196° |
| 2026-04-29 16:08 | 49.12297 | -3.82112 | 37001 ft | 417 kts | 196° |
| 2026-04-29 16:08 | 49.06758 | -3.84713 | 36992 ft | 416 kts | 196° |
| 2026-04-29 16:09 | 49.01225 | -3.87296 | 36982 ft | 416 kts | 196° |
| 2026-04-29 16:09 | 48.95687 | -3.89873 | 36980 ft | 416 kts | 196° |
| 2026-04-29 16:10 | 48.90197 | -3.92420 | 36972 ft | 415 kts | 196° |
| 2026-04-29 16:10 | 48.84681 | -3.94978 | 36968 ft | 415 kts | 196° |
| 2026-04-29 16:11 | 48.79161 | -3.97530 | 36969 ft | 415 kts | 196° |
| 2026-04-29 16:11 | 48.73642 | -4.00077 | 36970 ft | 415 kts | 196° |
| 2026-04-29 16:12 | 48.68128 | -4.02619 | 36970 ft | 413 kts | 196° |
| 2026-04-29 16:12 | 48.62634 | -4.05149 | 36970 ft | 413 kts | 196° |
| 2026-04-29 16:13 | 48.57141 | -4.07664 | 36967 ft | 413 kts | 196° |
| 2026-04-29 16:13 | 48.51650 | -4.10175 | 36963 ft | 412 kts | 196° |
| 2026-04-29 16:14 | 48.46169 | -4.12678 | 36960 ft | 411 kts | 196° |
| 2026-04-29 16:14 | 48.40686 | -4.15174 | 36959 ft | 411 kts | 196° |
| 2026-04-29 16:15 | 48.35210 | -4.17664 | 36951 ft | 411 kts | 196° |
| 2026-04-29 16:15 | 48.29725 | -4.20145 | 36946 ft | 411 kts | 196° |
| 2026-04-29 16:16 | 48.24245 | -4.22623 | 36941 ft | 411 kts | 196° |
| 2026-04-29 16:16 | 48.18761 | -4.25082 | 36941 ft | 411 kts | 196° |
| 2026-04-29 16:17 | 48.13281 | -4.27547 | 36940 ft | 411 kts | 196° |
| 2026-04-29 16:17 | 48.07804 | -4.30024 | 36940 ft | 411 kts | 196° |
| 2026-04-29 16:18 | 48.02327 | -4.32482 | 36940 ft | 411 kts | 196° |
| 2026-04-29 16:18 | 47.96847 | -4.34935 | 36940 ft | 411 kts | 196° |
| 2026-04-29 16:19 | 47.92269 | -4.36972 | 36933 ft | 410 kts | 196° |
| 2026-04-29 16:19 | 47.86803 | -4.39406 | 36933 ft | 410 kts | 196° |
| 2026-04-29 16:20 | 47.81371 | -4.41822 | 36932 ft | 410 kts | 196° |
| 2026-04-29 16:20 | 47.75902 | -4.44254 | 36938 ft | 411 kts | 196° |
| 2026-04-29 16:21 | 47.70411 | -4.46683 | 36940 ft | 411 kts | 196° |
| 2026-04-29 16:21 | 47.64922 | -4.49104 | 36933 ft | 411 kts | 196° |
| 2026-04-29 16:22 | 47.59437 | -4.51519 | 36931 ft | 410 kts | 196° |
| 2026-04-29 16:22 | 47.53997 | -4.53914 | 36930 ft | 410 kts | 196° |
| 2026-04-29 16:23 | 47.48517 | -4.56315 | 36931 ft | 410 kts | 196° |
| 2026-04-29 16:23 | 47.43041 | -4.58716 | 36932 ft | 410 kts | 196° |
| 2026-04-29 16:24 | 47.37560 | -4.61111 | 36932 ft | 410 kts | 196° |
| 2026-04-29 16:24 | 47.32073 | -4.63497 | 36932 ft | 411 kts | 196° |
| 2026-04-29 16:25 | 47.26607 | -4.65880 | 36931 ft | 411 kts | 196° |
| 2026-04-29 16:25 | 47.21136 | -4.68249 | 36930 ft | 411 kts | 196° |
| 2026-04-29 16:26 | 47.15647 | -4.70623 | 36936 ft | 410 kts | 196° |
| 2026-04-29 16:26 | 47.10158 | -4.72996 | 36939 ft | 411 kts | 195° |
| 2026-04-29 16:27 | 47.04670 | -4.75351 | 36940 ft | 411 kts | 195° |
| 2026-04-29 16:27 | 46.99184 | -4.77708 | 36940 ft | 411 kts | 195° |
| 2026-04-29 16:28 | 46.93729 | -4.80052 | 36940 ft | 411 kts | 195° |
| 2026-04-29 16:28 | 46.88231 | -4.82407 | 36940 ft | 411 kts | 195° |
| 2026-04-29 16:29 | 46.82737 | -4.84755 | 36940 ft | 411 kts | 195° |
| 2026-04-29 16:29 | 46.77281 | -4.87083 | 36940 ft | 411 kts | 195° |
| 2026-04-29 16:30 | 46.71783 | -4.89430 | 36934 ft | 411 kts | 195° |
| 2026-04-29 16:30 | 46.66343 | -4.91742 | 36915 ft | 411 kts | 195° |
| 2026-04-29 16:31 | 46.60850 | -4.94076 | 36923 ft | 411 kts | 195° |
| 2026-04-29 16:31 | 46.55364 | -4.96393 | 36915 ft | 411 kts | 195° |
| 2026-04-29 16:32 | 46.49869 | -4.98713 | 36928 ft | 411 kts | 195° |
| 2026-04-29 16:32 | 46.44391 | -5.01024 | 36925 ft | 411 kts | 195° |
| 2026-04-29 16:33 | 46.36135 | -5.04493 | 36906 ft | 411 kts | 195° |
| 2026-04-29 16:33 | 46.30677 | -5.06777 | 36910 ft | 411 kts | 195° |
| 2026-04-29 16:34 | 46.25193 | -5.09067 | 36904 ft | 410 kts | 195° |
| 2026-04-29 16:34 | 46.19696 | -5.11357 | 36914 ft | 410 kts | 195° |
| 2026-04-29 16:35 | 46.14237 | -5.13633 | 36896 ft | 411 kts | 195° |
| 2026-04-29 16:35 | 46.08732 | -5.15916 | 36904 ft | 410 kts | 195° |
| 2026-04-29 16:36 | 46.03243 | -5.18194 | 36898 ft | 410 kts | 195° |
| 2026-04-29 16:36 | 45.97754 | -5.20471 | 36890 ft | 410 kts | 195° |
| 2026-04-29 16:37 | 45.92247 | -5.22528 | 36889 ft | 411 kts | 191° |
| 2026-04-29 16:37 | 45.87560 | -5.23731 | 36891 ft | 411 kts | 190° |
| 2026-04-29 16:38 | 45.80972 | -5.25396 | 36892 ft | 411 kts | 190° |
| 2026-04-29 16:38 | 45.75328 | -5.26834 | 36882 ft | 411 kts | 190° |
| 2026-04-29 16:39 | 45.69718 | -5.28259 | 36881 ft | 411 kts | 190° |
| 2026-04-29 16:39 | 45.64070 | -5.29685 | 36878 ft | 411 kts | 190° |
| 2026-04-29 16:40 | 45.58431 | -5.31110 | 36878 ft | 411 kts | 190° |
| 2026-04-29 16:40 | 45.52792 | -5.32536 | 36872 ft | 411 kts | 190° |
| 2026-04-29 16:41 | 45.47150 | -5.33959 | 36873 ft | 411 kts | 190° |
| 2026-04-29 16:41 | 45.41512 | -5.35376 | 36871 ft | 412 kts | 190° |
| 2026-04-29 16:42 | 45.35858 | -5.36791 | 36867 ft | 412 kts | 190° |
| 2026-04-29 16:42 | 45.30250 | -5.38195 | 36860 ft | 412 kts | 190° |
| 2026-04-29 16:43 | 45.24596 | -5.39612 | 36861 ft | 412 kts | 190° |
| 2026-04-29 16:43 | 45.18937 | -5.41023 | 36860 ft | 412 kts | 190° |
| 2026-04-29 16:44 | 45.13285 | -5.42431 | 36859 ft | 412 kts | 190° |
| 2026-04-29 16:44 | 45.07645 | -5.43830 | 36850 ft | 412 kts | 190° |
| 2026-04-29 16:45 | 45.01990 | -5.45230 | 36840 ft | 412 kts | 190° |
| 2026-04-29 16:45 | 44.96360 | -5.46620 | 36841 ft | 413 kts | 190° |
| 2026-04-29 16:46 | 44.90693 | -5.48021 | 36843 ft | 413 kts | 190° |
| 2026-04-29 16:46 | 44.85014 | -5.49420 | 36838 ft | 413 kts | 190° |
| 2026-04-29 16:47 | 44.79350 | -5.50814 | 36838 ft | 413 kts | 190° |
| 2026-04-29 16:47 | 44.73669 | -5.52209 | 36832 ft | 414 kts | 190° |
| 2026-04-29 16:48 | 44.67974 | -5.53597 | 36828 ft | 414 kts | 190° |
| 2026-04-29 16:48 | 44.62336 | -5.54969 | 36833 ft | 414 kts | 190° |
| 2026-04-29 16:49 | 44.56723 | -5.56914 | 36828 ft | 414 kts | 195° |
| 2026-04-29 16:49 | 44.51172 | -5.59071 | 36832 ft | 414 kts | 195° |
| 2026-04-29 16:50 | 44.45615 | -5.61222 | 36827 ft | 414 kts | 195° |
| 2026-04-29 16:50 | 44.40042 | -5.63365 | 36825 ft | 415 kts | 195° |
| 2026-04-29 16:51 | 44.34473 | -5.65501 | 36829 ft | 415 kts | 195° |
| 2026-04-29 16:51 | 44.28891 | -5.67627 | 36836 ft | 415 kts | 195° |
| 2026-04-29 16:52 | 44.23333 | -5.69742 | 36840 ft | 415 kts | 195° |
| 2026-04-29 16:52 | 44.17723 | -5.71894 | 36843 ft | 418 kts | 195° |
| 2026-04-29 16:53 | 44.12135 | -5.74022 | 36832 ft | 416 kts | 195° |
| 2026-04-29 16:53 | 44.06554 | -5.76134 | 36828 ft | 416 kts | 195° |
| 2026-04-29 16:54 | 44.00959 | -5.78249 | 36827 ft | 417 kts | 195° |
| 2026-04-29 16:54 | 43.95397 | -5.80353 | 36833 ft | 417 kts | 195° |
| 2026-04-29 16:55 | 43.89785 | -5.82469 | 36828 ft | 417 kts | 195° |
| 2026-04-29 16:55 | 43.84182 | -5.84578 | 36828 ft | 416 kts | 195° |
| 2026-04-29 16:56 | 43.78579 | -5.86682 | 36817 ft | 417 kts | 195° |
| 2026-04-29 16:56 | 43.72984 | -5.88779 | 36819 ft | 416 kts | 195° |
| 2026-04-29 16:57 | 43.67383 | -5.90872 | 36817 ft | 416 kts | 195° |
| 2026-04-29 16:57 | 43.61795 | -5.92957 | 36816 ft | 416 kts | 195° |
| 2026-04-29 16:58 | 43.56196 | -5.95044 | 36816 ft | 416 kts | 195° |
| 2026-04-29 16:58 | 43.50648 | -5.97106 | 36821 ft | 415 kts | 195° |
| 2026-04-29 16:59 | 43.45069 | -5.99177 | 36831 ft | 415 kts | 195° |
| 2026-04-29 16:59 | 43.39485 | -6.01246 | 36828 ft | 416 kts | 195° |
| 2026-04-29 17:00 | 43.33915 | -6.03305 | 36820 ft | 417 kts | 195° |
| 2026-04-29 17:00 | 43.29215 | -6.05041 | 36823 ft | 417 kts | 195° |
| 2026-04-29 17:01 | 43.23599 | -6.07110 | 36818 ft | 417 kts | 195° |
| 2026-04-29 17:01 | 43.18029 | -6.09158 | 36837 ft | 417 kts | 195° |
| 2026-04-29 17:02 | 43.12410 | -6.11214 | 36830 ft | 417 kts | 195° |
| 2026-04-29 17:02 | 43.06788 | -6.13278 | 36838 ft | 417 kts | 195° |
| 2026-04-29 17:03 | 43.01184 | -6.15328 | 36844 ft | 416 kts | 195° |
| 2026-04-29 17:03 | 42.95616 | -6.17362 | 36852 ft | 416 kts | 195° |
| 2026-04-29 17:04 | 42.90013 | -6.19403 | 36860 ft | 416 kts | 195° |
| 2026-04-29 17:04 | 42.84410 | -6.21436 | 36869 ft | 416 kts | 195° |
| 2026-04-29 17:05 | 42.78815 | -6.23469 | 36868 ft | 416 kts | 195° |
| 2026-04-29 17:05 | 42.73209 | -6.25500 | 36874 ft | 416 kts | 195° |
| 2026-04-29 17:06 | 42.67614 | -6.27526 | 36875 ft | 416 kts | 195° |
| 2026-04-29 17:06 | 42.62012 | -6.29545 | 36880 ft | 416 kts | 195° |
| 2026-04-29 17:07 | 42.56405 | -6.31567 | 36875 ft | 416 kts | 195° |
| 2026-04-29 17:07 | 42.50837 | -6.33565 | 36890 ft | 415 kts | 195° |
| 2026-04-29 17:08 | 42.45241 | -6.35577 | 36892 ft | 415 kts | 195° |
| 2026-04-29 17:08 | 42.39658 | -6.37586 | 36890 ft | 415 kts | 195° |
| 2026-04-29 17:09 | 42.34058 | -6.39593 | 36893 ft | 416 kts | 195° |
| 2026-04-29 17:09 | 42.28467 | -6.41586 | 36891 ft | 415 kts | 195° |
| 2026-04-29 17:10 | 42.22870 | -6.43576 | 36886 ft | 416 kts | 195° |
| 2026-04-29 17:10 | 42.17309 | -6.45557 | 36889 ft | 415 kts | 195° |
| 2026-04-29 17:11 | 42.11709 | -6.47548 | 36885 ft | 415 kts | 195° |
| 2026-04-29 17:11 | 42.06104 | -6.49533 | 36882 ft | 415 kts | 195° |
| 2026-04-29 17:12 | 42.00549 | -6.51494 | 36881 ft | 415 kts | 195° |
| 2026-04-29 17:12 | 41.95866 | -6.53147 | 36881 ft | 415 kts | 196° |
| 2026-04-29 17:13 | 41.89367 | -6.55437 | 36882 ft | 414 kts | 196° |
| 2026-04-29 17:13 | 41.83782 | -6.57400 | 36874 ft | 415 kts | 196° |
| 2026-04-29 17:14 | 41.78210 | -6.59354 | 36871 ft | 414 kts | 196° |
| 2026-04-29 17:14 | 41.72618 | -6.61313 | 36873 ft | 415 kts | 196° |
| 2026-04-29 17:15 | 41.67133 | -6.63544 | 36873 ft | 413 kts | 200° |
| 2026-04-29 17:15 | 41.61690 | -6.66060 | 36866 ft | 413 kts | 200° |
| 2026-04-29 17:16 | 41.56256 | -6.68564 | 36861 ft | 413 kts | 200° |
| 2026-04-29 17:16 | 41.50809 | -6.71057 | 36860 ft | 413 kts | 200° |
| 2026-04-29 17:17 | 41.45370 | -6.73549 | 36861 ft | 413 kts | 200° |
| 2026-04-29 17:17 | 41.39920 | -6.76039 | 36859 ft | 413 kts | 200° |
| 2026-04-29 17:18 | 41.34481 | -6.78522 | 36860 ft | 414 kts | 200° |
| 2026-04-29 17:18 | 41.29026 | -6.81007 | 36863 ft | 415 kts | 200° |
| 2026-04-29 17:19 | 41.23595 | -6.83475 | 36859 ft | 414 kts | 200° |
| 2026-04-29 17:19 | 41.18133 | -6.85951 | 36859 ft | 414 kts | 200° |
| 2026-04-29 17:20 | 41.12689 | -6.88424 | 36860 ft | 414 kts | 200° |
| 2026-04-29 17:20 | 41.07238 | -6.90894 | 36852 ft | 413 kts | 200° |
| 2026-04-29 17:21 | 41.01791 | -6.93352 | 36855 ft | 413 kts | 200° |
| 2026-04-29 17:21 | 40.96379 | -6.95789 | 36852 ft | 413 kts | 200° |
| 2026-04-29 17:22 | 40.90963 | -6.98227 | 36849 ft | 413 kts | 200° |
| 2026-04-29 17:22 | 40.85507 | -7.00679 | 36852 ft | 412 kts | 201° |
| 2026-04-29 17:23 | 40.80064 | -7.03117 | 36857 ft | 412 kts | 200° |
| 2026-04-29 17:23 | 40.74625 | -7.05548 | 36864 ft | 413 kts | 201° |
| 2026-04-29 17:24 | 40.69214 | -7.07962 | 36862 ft | 413 kts | 201° |
| 2026-04-29 17:24 | 40.63769 | -7.10391 | 36861 ft | 413 kts | 201° |
| 2026-04-29 17:25 | 40.58339 | -7.12809 | 36861 ft | 413 kts | 201° |
| 2026-04-29 17:25 | 40.52894 | -7.15229 | 36859 ft | 412 kts | 201° |
| 2026-04-29 17:26 | 40.47460 | -7.17638 | 36860 ft | 412 kts | 201° |
| 2026-04-29 17:26 | 40.42016 | -7.20051 | 36860 ft | 412 kts | 201° |
| 2026-04-29 17:27 | 40.36573 | -7.22457 | 36859 ft | 412 kts | 201° |
| 2026-04-29 17:27 | 40.31163 | -7.24848 | 36860 ft | 413 kts | 201° |
| 2026-04-29 17:28 | 40.25709 | -7.27250 | 36860 ft | 412 kts | 201° |
| 2026-04-29 17:28 | 40.20269 | -7.29642 | 36860 ft | 413 kts | 201° |
| 2026-04-29 17:29 | 40.14805 | -7.32043 | 36861 ft | 413 kts | 201° |
| 2026-04-29 17:29 | 40.10263 | -7.34033 | 36862 ft | 413 kts | 201° |
| 2026-04-29 17:30 | 40.03889 | -7.36824 | 36860 ft | 414 kts | 201° |
| 2026-04-29 17:30 | 39.98433 | -7.39209 | 36859 ft | 413 kts | 201° |
| 2026-04-29 17:31 | 39.93013 | -7.41576 | 36861 ft | 413 kts | 201° |
| 2026-04-29 17:31 | 39.87574 | -7.43944 | 36870 ft | 412 kts | 201° |
| 2026-04-29 17:32 | 39.82120 | -7.46315 | 36869 ft | 412 kts | 201° |
| 2026-04-29 17:32 | 39.76668 | -7.48680 | 36869 ft | 413 kts | 201° |
| 2026-04-29 17:33 | 39.71226 | -7.51037 | 36869 ft | 412 kts | 201° |
| 2026-04-29 17:33 | 39.65779 | -7.53394 | 36876 ft | 412 kts | 201° |
| 2026-04-29 17:34 | 39.60367 | -7.55730 | 36887 ft | 413 kts | 201° |
| 2026-04-29 17:34 | 39.54927 | -7.58077 | 36883 ft | 411 kts | 201° |
| 2026-04-29 17:35 | 39.46764 | -7.61592 | 36884 ft | 411 kts | 201° |
| 2026-04-29 17:36 | 39.41334 | -7.63925 | 36879 ft | 411 kts | 201° |
| 2026-04-29 17:36 | 39.35793 | -7.65817 | 36883 ft | 414 kts | 194° |
| 2026-04-29 17:37 | 39.30111 | -7.67070 | 36880 ft | 414 kts | 193° |
| 2026-04-29 17:37 | 39.24425 | -7.68315 | 36876 ft | 413 kts | 194° |
| 2026-04-29 17:38 | 39.18746 | -7.69570 | 36882 ft | 413 kts | 194° |
| 2026-04-29 17:38 | 39.13109 | -7.70818 | 36883 ft | 413 kts | 194° |
| 2026-04-29 17:39 | 39.07438 | -7.72070 | 36881 ft | 412 kts | 194° |
| 2026-04-29 17:39 | 39.01781 | -7.73318 | 36879 ft | 411 kts | 194° |
| 2026-04-29 17:40 | 38.96173 | -7.74553 | 36881 ft | 412 kts | 194° |
| 2026-04-29 17:40 | 38.90521 | -7.75795 | 36881 ft | 411 kts | 194° |
| 2026-04-29 17:41 | 38.84879 | -7.77033 | 36882 ft | 411 kts | 195° |
| 2026-04-29 17:41 | 38.80186 | -7.78061 | 36888 ft | 410 kts | 195° |
| 2026-04-29 17:42 | 38.74542 | -7.79299 | 36888 ft | 410 kts | 195° |
| 2026-04-29 17:42 | 38.68920 | -7.80527 | 36886 ft | 410 kts | 195° |
| 2026-04-29 17:43 | 38.63293 | -7.81756 | 36891 ft | 409 kts | 195° |
| 2026-04-29 17:43 | 38.57676 | -7.82984 | 36902 ft | 409 kts | 195° |
| 2026-04-29 17:44 | 38.52096 | -7.84203 | 36904 ft | 409 kts | 195° |
| 2026-04-29 17:44 | 38.46479 | -7.85421 | 36895 ft | 408 kts | 195° |
| 2026-04-29 17:45 | 38.40875 | -7.86638 | 36904 ft | 409 kts | 195° |
| 2026-04-29 17:45 | 38.35263 | -7.87854 | 36899 ft | 408 kts | 195° |
| 2026-04-29 17:46 | 38.29661 | -7.89060 | 36896 ft | 408 kts | 195° |
| 2026-04-29 17:46 | 38.24082 | -7.90262 | 36897 ft | 408 kts | 196° |
| 2026-04-29 17:47 | 38.18469 | -7.91471 | 36911 ft | 408 kts | 196° |
| 2026-04-29 17:47 | 38.12899 | -7.92662 | 36916 ft | 408 kts | 195° |
| 2026-04-29 17:48 | 38.07263 | -7.93710 | 36916 ft | 409 kts | 194° |
| 2026-04-29 17:48 | 38.01622 | -7.94744 | 36915 ft | 409 kts | 194° |
| 2026-04-29 17:49 | 37.95985 | -7.95780 | 36912 ft | 409 kts | 194° |
| 2026-04-29 17:49 | 37.90386 | -7.96809 | 36911 ft | 409 kts | 194° |
| 2026-04-29 17:50 | 37.84761 | -7.97843 | 36909 ft | 408 kts | 194° |
| 2026-04-29 17:50 | 37.79119 | -7.98874 | 36919 ft | 408 kts | 194° |
| 2026-04-29 17:51 | 37.73486 | -7.99908 | 36908 ft | 408 kts | 194° |
| 2026-04-29 17:51 | 37.67889 | -8.00932 | 36910 ft | 409 kts | 194° |
| 2026-04-29 17:52 | 37.62254 | -8.01949 | 36901 ft | 409 kts | 194° |
| 2026-04-29 17:52 | 37.56601 | -8.02974 | 36916 ft | 409 kts | 194° |
| 2026-04-29 17:53 | 37.50962 | -8.04001 | 36921 ft | 410 kts | 194° |
| 2026-04-29 17:53 | 37.45336 | -8.05019 | 36928 ft | 410 kts | 194° |
| 2026-04-29 17:54 | 37.39692 | -8.06043 | 36916 ft | 410 kts | 194° |
| 2026-04-29 17:54 | 37.34035 | -8.07063 | 36930 ft | 410 kts | 194° |
| 2026-04-29 17:55 | 37.28363 | -8.08087 | 36929 ft | 410 kts | 194° |
| 2026-04-29 17:55 | 37.22746 | -8.09099 | 36930 ft | 410 kts | 194° |
| 2026-04-29 17:56 | 37.17097 | -8.10117 | 36930 ft | 410 kts | 194° |
| 2026-04-29 17:56 | 37.11433 | -8.11134 | 36933 ft | 411 kts | 194° |
| 2026-04-29 17:57 | 37.05770 | -8.12151 | 36931 ft | 411 kts | 194° |
| 2026-04-29 17:57 | 37.00114 | -8.13162 | 36929 ft | 411 kts | 194° |
| 2026-04-29 17:58 | 36.94482 | -8.14167 | 36931 ft | 410 kts | 194° |
| 2026-04-29 17:58 | 36.88828 | -8.15182 | 36931 ft | 410 kts | 194° |
| 2026-04-29 17:59 | 36.83161 | -8.16191 | 36930 ft | 411 kts | 194° |
| 2026-04-29 17:59 | 36.77492 | -8.17199 | 36930 ft | 411 kts | 194° |
| 2026-04-29 18:00 | 36.71827 | -8.18205 | 36931 ft | 411 kts | 194° |
| 2026-04-29 18:00 | 36.66203 | -8.19204 | 36931 ft | 410 kts | 194° |
| 2026-04-29 18:01 | 36.60540 | -8.20211 | 36933 ft | 410 kts | 194° |
| 2026-04-29 18:01 | 36.54881 | -8.21210 | 36930 ft | 410 kts | 194° |
| 2026-04-29 18:02 | 36.49249 | -8.22205 | 36932 ft | 411 kts | 194° |
| 2026-04-29 18:02 | 36.43595 | -8.23203 | 36930 ft | 410 kts | 194° |
| 2026-04-29 18:03 | 36.37940 | -8.24207 | 36931 ft | 410 kts | 194° |
| 2026-04-29 18:03 | 36.32318 | -8.25198 | 36931 ft | 410 kts | 194° |
| 2026-04-29 18:04 | 36.26667 | -8.26192 | 36931 ft | 410 kts | 194° |
| 2026-04-29 18:04 | 36.21023 | -8.27184 | 36930 ft | 409 kts | 194° |
| 2026-04-29 18:05 | 36.15386 | -8.28167 | 36929 ft | 409 kts | 194° |
| 2026-04-29 18:05 | 36.09676 | -8.29172 | 36931 ft | 420 kts | 194° |
| 2026-04-29 18:06 | 36.03880 | -8.30184 | 36931 ft | 421 kts | 193° |
| 2026-04-29 18:06 | 35.98059 | -8.31197 | 36931 ft | 421 kts | 194° |
| 2026-04-29 18:07 | 35.92390 | -8.32779 | 36929 ft | 417 kts | 200° |
| 2026-04-29 18:07 | 35.86784 | -8.34580 | 36929 ft | 416 kts | 200° |
| 2026-04-29 18:08 | 35.81180 | -8.36363 | 36930 ft | 416 kts | 200° |
| 2026-04-29 18:08 | 35.75598 | -8.38128 | 36930 ft | 416 kts | 199° |
| 2026-04-29 18:09 | 35.69984 | -8.39902 | 36930 ft | 416 kts | 199° |
| 2026-04-29 18:09 | 35.64370 | -8.41676 | 36929 ft | 416 kts | 199° |
| 2026-04-29 18:10 | 35.58737 | -8.43454 | 36929 ft | 417 kts | 199° |
| 2026-04-29 18:10 | 35.53117 | -8.45221 | 36931 ft | 417 kts | 199° |
| 2026-04-29 18:11 | 35.47493 | -8.46990 | 36931 ft | 417 kts | 199° |
| 2026-04-29 18:11 | 35.41876 | -8.48753 | 36929 ft | 417 kts | 199° |
| 2026-04-29 18:12 | 35.36251 | -8.50512 | 36930 ft | 417 kts | 199° |
| 2026-04-29 18:12 | 35.30660 | -8.52266 | 36931 ft | 417 kts | 199° |
| 2026-04-29 18:13 | 35.25031 | -8.54028 | 36930 ft | 418 kts | 199° |
| 2026-04-29 18:13 | 35.19395 | -8.55791 | 36932 ft | 418 kts | 199° |
| 2026-04-29 18:14 | 35.13755 | -8.57548 | 36933 ft | 418 kts | 199° |
| 2026-04-29 18:14 | 35.08128 | -8.59300 | 36946 ft | 417 kts | 199° |
| 2026-04-29 18:15 | 35.02489 | -8.61051 | 36949 ft | 417 kts | 199° |
| 2026-04-29 18:15 | 34.96894 | -8.62789 | 36950 ft | 417 kts | 199° |
| 2026-04-29 18:16 | 34.91258 | -8.64523 | 36950 ft | 418 kts | 199° |
| 2026-04-29 18:16 | 34.85608 | -8.66269 | 36950 ft | 418 kts | 199° |
| 2026-04-29 18:17 | 34.79972 | -8.68012 | 36950 ft | 417 kts | 199° |
| 2026-04-29 18:17 | 34.74331 | -8.69752 | 36951 ft | 419 kts | 198° |
| 2026-04-29 18:18 | 34.68718 | -8.71482 | 36950 ft | 418 kts | 198° |
| 2026-04-29 18:18 | 34.63072 | -8.73223 | 36950 ft | 418 kts | 198° |
| 2026-04-29 18:19 | 34.57422 | -8.74956 | 36950 ft | 419 kts | 198° |
| 2026-04-29 18:19 | 34.51767 | -8.76691 | 36958 ft | 419 kts | 198° |
| 2026-04-29 18:20 | 34.46145 | -8.78513 | 36957 ft | 416 kts | 203° |
| 2026-04-29 18:20 | 34.43533 | -8.79969 | 36958 ft | 411 kts | 214° |
| 2026-04-29 18:20 | 34.41213 | -8.81950 | 36964 ft | 408 kts | 221° |
| 2026-04-29 18:21 | 34.36792 | -8.86255 | 36962 ft | 408 kts | 221° |
| 2026-04-29 18:21 | 34.33100 | -8.89831 | 36961 ft | 409 kts | 221° |
| 2026-04-29 18:22 | 34.28651 | -8.94109 | 36961 ft | 408 kts | 221° |
| 2026-04-29 18:22 | 34.24193 | -8.98378 | 36960 ft | 409 kts | 221° |
| 2026-04-29 18:23 | 34.19722 | -9.02656 | 36960 ft | 409 kts | 221° |
| 2026-04-29 18:23 | 34.15257 | -9.06925 | 36961 ft | 410 kts | 221° |
| 2026-04-29 18:24 | 34.10787 | -9.11187 | 36960 ft | 410 kts | 221° |
| 2026-04-29 18:24 | 34.06345 | -9.15424 | 36960 ft | 410 kts | 221° |
| 2026-04-29 18:25 | 34.01853 | -9.19706 | 36954 ft | 411 kts | 221° |
| 2026-04-29 18:25 | 33.97363 | -9.23973 | 36951 ft | 411 kts | 220° |
| 2026-04-29 18:26 | 33.92874 | -9.28232 | 36951 ft | 410 kts | 220° |
| 2026-04-29 18:26 | 33.88383 | -9.32489 | 36951 ft | 411 kts | 220° |
| 2026-04-29 18:27 | 33.83930 | -9.36706 | 36950 ft | 412 kts | 220° |
| 2026-04-29 18:27 | 33.79422 | -9.40956 | 36959 ft | 412 kts | 220° |
| 2026-04-29 18:28 | 33.74912 | -9.45202 | 36960 ft | 412 kts | 220° |
| 2026-04-29 18:28 | 33.70398 | -9.49458 | 36961 ft | 412 kts | 220° |
| 2026-04-29 18:29 | 33.65908 | -9.53684 | 36961 ft | 412 kts | 220° |
| 2026-04-29 18:29 | 33.61385 | -9.57938 | 36961 ft | 412 kts | 220° |
| 2026-04-29 18:30 | 33.56870 | -9.62176 | 36961 ft | 412 kts | 220° |
| 2026-04-29 18:30 | 33.52345 | -9.66416 | 36961 ft | 412 kts | 220° |
| 2026-04-29 18:31 | 33.47857 | -9.70618 | 36960 ft | 412 kts | 220° |
| 2026-04-29 18:31 | 33.43355 | -9.74835 | 36960 ft | 412 kts | 220° |
| 2026-04-29 18:32 | 33.38829 | -9.79054 | 36960 ft | 411 kts | 220° |
| 2026-04-29 18:32 | 33.32052 | -9.85365 | 36960 ft | 411 kts | 220° |
| 2026-04-29 18:33 | 33.27535 | -9.89565 | 36960 ft | 411 kts | 220° |
| 2026-04-29 18:33 | 33.23019 | -9.93765 | 36961 ft | 411 kts | 220° |
| 2026-04-29 18:34 | 33.19269 | -9.97246 | 36961 ft | 410 kts | 220° |
| 2026-04-29 18:34 | 33.14014 | -10.02115 | 36960 ft | 410 kts | 220° |
| 2026-04-29 18:35 | 33.09501 | -10.06293 | 36960 ft | 409 kts | 220° |
| 2026-04-29 18:35 | 33.05022 | -10.10422 | 36960 ft | 409 kts | 220° |
| 2026-04-29 18:36 | 33.00518 | -10.14557 | 36961 ft | 408 kts | 220° |
| 2026-04-29 18:36 | 32.96013 | -10.18713 | 36960 ft | 409 kts | 220° |
| 2026-04-29 18:37 | 32.91529 | -10.22841 | 36960 ft | 408 kts | 220° |
| 2026-04-29 18:37 | 32.87028 | -10.26966 | 36961 ft | 407 kts | 220° |
| 2026-04-29 18:38 | 32.82530 | -10.31088 | 36961 ft | 407 kts | 220° |
| 2026-04-29 18:38 | 32.78059 | -10.35186 | 36960 ft | 408 kts | 220° |
| 2026-04-29 18:39 | 32.73565 | -10.39290 | 36961 ft | 407 kts | 220° |
| 2026-04-29 18:39 | 32.69074 | -10.43389 | 36960 ft | 407 kts | 220° |
| 2026-04-29 18:40 | 32.64588 | -10.47483 | 36960 ft | 407 kts | 220° |
| 2026-04-29 18:40 | 32.60098 | -10.51571 | 36960 ft | 407 kts | 220° |
| 2026-04-29 18:41 | 32.51144 | -10.59719 | 36960 ft | 406 kts | 220° |
| 2026-04-29 18:42 | 32.46649 | -10.63788 | 36960 ft | 406 kts | 220° |
| 2026-04-29 18:42 | 32.42162 | -10.67859 | 36961 ft | 407 kts | 220° |
| 2026-04-29 18:43 | 32.37661 | -10.71931 | 36960 ft | 406 kts | 220° |
| 2026-04-29 18:43 | 32.33183 | -10.75982 | 36961 ft | 406 kts | 220° |
| 2026-04-29 18:44 | 32.28687 | -10.80039 | 36960 ft | 406 kts | 220° |
| 2026-04-29 18:44 | 32.24193 | -10.84089 | 36960 ft | 406 kts | 220° |
| 2026-04-29 18:45 | 32.19727 | -10.88109 | 36961 ft | 406 kts | 220° |
| 2026-04-29 18:45 | 32.15199 | -10.92170 | 36960 ft | 406 kts | 219° |
| 2026-04-29 18:46 | 32.10727 | -10.96175 | 36962 ft | 406 kts | 219° |
| 2026-04-29 18:46 | 32.06239 | -11.00212 | 36960 ft | 405 kts | 219° |
| 2026-04-29 18:47 | 32.01746 | -11.04243 | 36961 ft | 405 kts | 219° |
| 2026-04-29 18:47 | 31.97275 | -11.08244 | 36961 ft | 403 kts | 219° |
| 2026-04-29 18:48 | 31.92817 | -11.12223 | 36959 ft | 402 kts | 219° |
| 2026-04-29 18:48 | 31.88350 | -11.16212 | 36961 ft | 403 kts | 219° |
| 2026-04-29 18:49 | 31.83872 | -11.20200 | 36968 ft | 403 kts | 219° |
| 2026-04-29 18:49 | 31.79406 | -11.24174 | 36971 ft | 403 kts | 219° |
| 2026-04-29 18:50 | 31.74967 | -11.28121 | 36970 ft | 402 kts | 219° |
| 2026-04-29 18:50 | 31.70505 | -11.32104 | 36970 ft | 402 kts | 219° |
| 2026-04-29 18:51 | 31.66043 | -11.36084 | 36970 ft | 402 kts | 219° |
| 2026-04-29 18:51 | 31.61574 | -11.40060 | 36962 ft | 402 kts | 219° |
| 2026-04-29 18:52 | 31.57107 | -11.44032 | 36960 ft | 402 kts | 219° |
| 2026-04-29 18:52 | 31.52676 | -11.47967 | 36960 ft | 402 kts | 219° |
| 2026-04-29 18:53 | 31.48211 | -11.51928 | 36953 ft | 402 kts | 219° |
| 2026-04-29 18:53 | 31.43747 | -11.55883 | 36951 ft | 402 kts | 219° |
| 2026-04-29 18:54 | 31.39278 | -11.59835 | 36950 ft | 402 kts | 219° |
| 2026-04-29 18:54 | 31.34816 | -11.63782 | 36951 ft | 402 kts | 219° |
| 2026-04-29 18:55 | 31.30349 | -11.67727 | 36950 ft | 401 kts | 219° |
| 2026-04-29 18:55 | 31.25896 | -11.71649 | 36951 ft | 401 kts | 219° |
| 2026-04-29 18:56 | 31.21460 | -11.75557 | 36950 ft | 401 kts | 219° |
| 2026-04-29 18:56 | 31.16977 | -11.79498 | 36950 ft | 401 kts | 219° |
| 2026-04-29 18:57 | 31.12534 | -11.83398 | 36951 ft | 401 kts | 219° |
| 2026-04-29 18:57 | 31.08083 | -11.87303 | 36950 ft | 400 kts | 219° |
| 2026-04-29 18:58 | 31.03622 | -11.91215 | 36950 ft | 400 kts | 219° |
| 2026-04-29 18:58 | 30.99173 | -11.95112 | 36950 ft | 399 kts | 219° |
| 2026-04-29 18:59 | 30.94733 | -11.98998 | 36950 ft | 399 kts | 219° |
| 2026-04-29 18:59 | 30.90283 | -12.02880 | 36958 ft | 399 kts | 218° |
| 2026-04-29 19:00 | 30.85874 | -12.06726 | 36960 ft | 398 kts | 218° |
| 2026-04-29 19:00 | 30.81436 | -12.10594 | 36960 ft | 398 kts | 218° |
| 2026-04-29 19:01 | 30.76998 | -12.14453 | 36961 ft | 398 kts | 218° |
| 2026-04-29 19:01 | 30.72556 | -12.18314 | 36960 ft | 398 kts | 218° |
| 2026-04-29 19:02 | 30.68837 | -12.21542 | 36961 ft | 398 kts | 218° |
| 2026-04-29 19:02 | 30.63682 | -12.26010 | 36960 ft | 397 kts | 218° |
| 2026-04-29 19:03 | 30.59970 | -12.29224 | 36961 ft | 397 kts | 218° |
| 2026-04-29 19:03 | 30.55555 | -12.33046 | 36961 ft | 398 kts | 218° |
| 2026-04-29 19:04 | 30.51116 | -12.36879 | 36960 ft | 397 kts | 218° |
| 2026-04-29 19:04 | 30.46675 | -12.40703 | 36961 ft | 397 kts | 218° |
| 2026-04-29 19:05 | 30.42268 | -12.44485 | 36960 ft | 397 kts | 218° |
| 2026-04-29 19:05 | 30.37829 | -12.48296 | 36960 ft | 397 kts | 218° |
| 2026-04-29 19:06 | 30.33388 | -12.52107 | 36960 ft | 397 kts | 218° |
| 2026-04-29 19:07 | 30.26750 | -12.57786 | 36960 ft | 397 kts | 218° |
| 2026-04-29 19:07 | 30.22301 | -12.61587 | 36960 ft | 397 kts | 218° |
| 2026-04-29 19:08 | 30.17857 | -12.65385 | 36964 ft | 397 kts | 218° |
| 2026-04-29 19:08 | 30.13411 | -12.69178 | 36968 ft | 397 kts | 218° |
| 2026-04-29 19:09 | 30.08959 | -12.72970 | 36970 ft | 397 kts | 218° |
| 2026-04-29 19:09 | 30.04545 | -12.76745 | 36972 ft | 398 kts | 218° |
| 2026-04-29 19:10 | 30.00095 | -12.80548 | 36969 ft | 398 kts | 218° |
| 2026-04-29 19:10 | 29.95653 | -12.84338 | 36967 ft | 394 kts | 218° |
| 2026-04-29 19:11 | 29.91242 | -12.88097 | 36966 ft | 394 kts | 218° |
| 2026-04-29 19:11 | 29.86833 | -12.91852 | 36969 ft | 394 kts | 218° |
| 2026-04-29 19:12 | 29.82450 | -12.95577 | 36971 ft | 394 kts | 218° |
| 2026-04-29 19:12 | 29.78033 | -12.99327 | 36968 ft | 394 kts | 218° |
| 2026-04-29 19:13 | 29.73616 | -13.03075 | 36968 ft | 394 kts | 218° |
| 2026-04-29 19:13 | 29.69204 | -13.06815 | 36973 ft | 393 kts | 218° |
| 2026-04-29 19:14 | 29.64795 | -13.10546 | 36978 ft | 393 kts | 218° |
| 2026-04-29 19:14 | 29.60388 | -13.14274 | 36979 ft | 393 kts | 218° |
| 2026-04-29 19:15 | 29.56004 | -13.17975 | 36979 ft | 393 kts | 218° |
| 2026-04-29 19:15 | 29.51599 | -13.21694 | 36980 ft | 393 kts | 218° |
| 2026-04-29 19:16 | 29.47187 | -13.25410 | 36987 ft | 392 kts | 218° |
| 2026-04-29 19:16 | 29.42788 | -13.29114 | 37001 ft | 392 kts | 218° |
| 2026-04-29 19:17 | 29.38394 | -13.32811 | 37005 ft | 392 kts | 218° |
| 2026-04-29 19:17 | 29.33989 | -13.36506 | 37000 ft | 393 kts | 218° |
| 2026-04-29 19:18 | 29.29586 | -13.40198 | 36997 ft | 392 kts | 218° |
| 2026-04-29 19:18 | 29.25194 | -13.43882 | 36994 ft | 391 kts | 218° |
| 2026-04-29 19:19 | 29.20800 | -13.47562 | 36993 ft | 391 kts | 218° |
| 2026-04-29 19:19 | 29.16452 | -13.51242 | 36988 ft | 390 kts | 221° |
| 2026-04-29 19:20 | 29.12348 | -13.55263 | 36988 ft | 387 kts | 223° |
| 2026-04-29 19:20 | 29.08289 | -13.59287 | 36989 ft | 384 kts | 223° |
| 2026-04-29 19:21 | 29.04257 | -13.63270 | 36990 ft | 381 kts | 223° |
| 2026-04-29 19:21 | 29.00276 | -13.67199 | 36134 ft | 377 kts | 223° |
| 2026-04-29 19:21 | 28.98289 | -13.69160 | 35490 ft | 378 kts | 223° |
| 2026-04-29 19:22 | 28.96303 | -13.71118 | 34984 ft | 375 kts | 223° |
| 2026-04-29 19:22 | 28.94354 | -13.73040 | 34162 ft | 377 kts | 222° |
| 2026-04-29 19:22 | 28.92353 | -13.75010 | 33195 ft | 382 kts | 222° |
| 2026-04-29 19:22 | 28.90332 | -13.76998 | 32518 ft | 380 kts | 222° |
| 2026-04-29 19:23 | 28.88346 | -13.78948 | 32031 ft | 372 kts | 222° |
| 2026-04-29 19:23 | 28.86410 | -13.80854 | 31598 ft | 364 kts | 222° |
| 2026-04-29 19:23 | 28.84509 | -13.82721 | 31185 ft | 358 kts | 222° |
| 2026-04-29 19:23 | 28.82634 | -13.84564 | 30787 ft | 353 kts | 222° |
| 2026-04-29 19:24 | 28.80782 | -13.86378 | 30398 ft | 348 kts | 222° |
| 2026-04-29 19:24 | 28.78955 | -13.88169 | 30022 ft | 343 kts | 222° |
| 2026-04-29 19:24 | 28.77159 | -13.89929 | 29626 ft | 339 kts | 222° |
| 2026-04-29 19:24 | 28.75382 | -13.91675 | 29203 ft | 335 kts | 223° |
| 2026-04-29 19:25 | 28.73642 | -13.93381 | 28799 ft | 333 kts | 223° |
| 2026-04-29 19:25 | 28.71890 | -13.95096 | 28400 ft | 329 kts | 222° |
| 2026-04-29 19:25 | 28.70166 | -13.96783 | 28028 ft | 324 kts | 223° |
| 2026-04-29 19:25 | 28.68463 | -13.98449 | 27665 ft | 320 kts | 223° |
| 2026-04-29 19:26 | 28.66778 | -14.00096 | 27279 ft | 317 kts | 223° |
| 2026-04-29 19:26 | 28.65112 | -14.01724 | 26900 ft | 314 kts | 223° |
| 2026-04-29 19:26 | 28.63465 | -14.03334 | 26517 ft | 311 kts | 223° |
| 2026-04-29 19:26 | 28.61824 | -14.04938 | 26147 ft | 310 kts | 223° |
| 2026-04-29 19:27 | 28.60213 | -14.06512 | 25793 ft | 308 kts | 223° |
| 2026-04-29 19:27 | 28.58587 | -14.08099 | 25428 ft | 307 kts | 223° |
| 2026-04-29 19:27 | 28.56968 | -14.09676 | 25066 ft | 306 kts | 223° |
| 2026-04-29 19:27 | 28.55352 | -14.11251 | 24694 ft | 305 kts | 223° |
| 2026-04-29 19:28 | 28.53742 | -14.12822 | 24299 ft | 304 kts | 223° |
| 2026-04-29 19:28 | 28.52137 | -14.14382 | 23920 ft | 303 kts | 223° |
| 2026-04-29 19:28 | 28.50536 | -14.15938 | 23536 ft | 301 kts | 223° |
| 2026-04-29 19:28 | 28.48946 | -14.17487 | 23184 ft | 300 kts | 223° |
| 2026-04-29 19:29 | 28.47361 | -14.19028 | 22822 ft | 299 kts | 223° |
| 2026-04-29 19:29 | 28.45786 | -14.20560 | 22457 ft | 297 kts | 223° |
| 2026-04-29 19:29 | 28.44217 | -14.22089 | 22071 ft | 296 kts | 223° |
| 2026-04-29 19:29 | 28.42679 | -14.23586 | 21689 ft | 295 kts | 223° |
| 2026-04-29 19:30 | 28.41120 | -14.25098 | 21322 ft | 293 kts | 223° |
| 2026-04-29 19:30 | 28.39573 | -14.26603 | 20965 ft | 292 kts | 223° |
| 2026-04-29 19:30 | 28.38022 | -14.28106 | 20607 ft | 291 kts | 223° |
| 2026-04-29 19:30 | 28.36487 | -14.29594 | 20254 ft | 290 kts | 222° |
| 2026-04-29 19:31 | 28.34955 | -14.31078 | 19903 ft | 288 kts | 223° |
| 2026-04-29 19:31 | 28.33452 | -14.32534 | 19572 ft | 288 kts | 222° |
| 2026-04-29 19:31 | 28.31932 | -14.34008 | 19249 ft | 286 kts | 223° |
| 2026-04-29 19:31 | 28.30418 | -14.35475 | 18918 ft | 285 kts | 222° |
| 2026-04-29 19:32 | 28.28920 | -14.36924 | 18592 ft | 284 kts | 222° |
| 2026-04-29 19:32 | 28.27409 | -14.38386 | 18262 ft | 283 kts | 222° |
| 2026-04-29 19:32 | 28.25909 | -14.39837 | 17951 ft | 283 kts | 222° |
| 2026-04-29 19:32 | 28.24413 | -14.41282 | 17637 ft | 281 kts | 222° |
| 2026-04-29 19:33 | 28.22942 | -14.42704 | 17341 ft | 281 kts | 222° |
| 2026-04-29 19:33 | 28.21442 | -14.44156 | 17027 ft | 280 kts | 222° |
| 2026-04-29 19:33 | 28.19960 | -14.45587 | 16717 ft | 280 kts | 222° |
| 2026-04-29 19:33 | 28.18496 | -14.47000 | 16409 ft | 279 kts | 222° |
| 2026-04-29 19:34 | 28.17015 | -14.48424 | 16104 ft | 278 kts | 222° |
| 2026-04-29 19:34 | 28.15543 | -14.49843 | 15801 ft | 278 kts | 222° |
| 2026-04-29 19:34 | 28.14070 | -14.51264 | 15514 ft | 277 kts | 222° |
| 2026-04-29 19:34 | 28.12603 | -14.52676 | 15239 ft | 276 kts | 221° |
| 2026-04-29 19:35 | 28.11152 | -14.54074 | 14955 ft | 276 kts | 221° |
| 2026-04-29 19:35 | 28.09689 | -14.55484 | 14652 ft | 275 kts | 221° |
| 2026-04-29 19:35 | 28.08229 | -14.56887 | 14345 ft | 275 kts | 221° |
| 2026-04-29 19:35 | 28.06774 | -14.58290 | 14035 ft | 274 kts | 221° |
| 2026-04-29 19:36 | 28.05323 | -14.59686 | 13740 ft | 273 kts | 221° |
| 2026-04-29 19:36 | 28.03875 | -14.61078 | 13453 ft | 273 kts | 221° |
| 2026-04-29 19:36 | 28.02443 | -14.62453 | 13184 ft | 272 kts | 221° |
| 2026-04-29 19:36 | 28.00995 | -14.63842 | 12906 ft | 272 kts | 221° |
| 2026-04-29 19:37 | 27.99586 | -14.65276 | 12622 ft | 271 kts | 225° |
| 2026-04-29 19:37 | 27.98719 | -14.66285 | 12429 ft | 270 kts | 227° |
| 2026-04-29 19:37 | 27.96982 | -14.68346 | 12019 ft | 269 kts | 227° |
| 2026-04-29 19:37 | 27.95686 | -14.69885 | 11712 ft | 268 kts | 227° |
| 2026-04-29 19:38 | 27.94416 | -14.71392 | 11432 ft | 268 kts | 227° |
| 2026-04-29 19:38 | 27.93130 | -14.72912 | 11150 ft | 267 kts | 226° |
| 2026-04-29 19:38 | 27.91843 | -14.74435 | 10869 ft | 266 kts | 227° |
| 2026-04-29 19:38 | 27.90560 | -14.75953 | 10587 ft | 267 kts | 226° |
| 2026-04-29 19:39 | 27.89292 | -14.77452 | 10304 ft | 265 kts | 226° |
| 2026-04-29 19:39 | 27.88023 | -14.78948 | 10094 ft | 262 kts | 226° |
| 2026-04-29 19:39 | 27.86769 | -14.80428 | 9844 ft | 259 kts | 227° |
| 2026-04-29 19:39 | 27.85519 | -14.81902 | 9562 ft | 259 kts | 226° |
| 2026-04-29 19:40 | 27.84277 | -14.83367 | 9272 ft | 258 kts | 226° |
| 2026-04-29 19:40 | 27.83037 | -14.84827 | 8982 ft | 257 kts | 226° |
| 2026-04-29 19:40 | 27.81800 | -14.86285 | 8696 ft | 257 kts | 226° |
| 2026-04-29 19:40 | 27.80565 | -14.87739 | 8408 ft | 257 kts | 226° |
| 2026-04-29 19:41 | 27.79333 | -14.89190 | 8124 ft | 256 kts | 226° |
| 2026-04-29 19:41 | 27.78093 | -14.90651 | 7839 ft | 256 kts | 226° |
| 2026-04-29 19:41 | 27.76861 | -14.92101 | 7570 ft | 255 kts | 226° |
| 2026-04-29 19:41 | 27.75652 | -14.93526 | 7294 ft | 254 kts | 226° |
| 2026-04-29 19:42 | 27.74436 | -14.94955 | 7072 ft | 248 kts | 226° |
| 2026-04-29 19:42 | 27.74035 | -14.95426 | 7028 ft | 247 kts | 226° |
| 2026-04-29 19:42 | 27.71894 | -14.97954 | 7091 ft | 272 kts | 226° |
| 2026-04-29 19:42 | 27.70581 | -14.99501 | 7050 ft | 272 kts | 226° |
| 2026-04-29 19:43 | 27.69432 | -15.01191 | 7084 ft | 271 kts | 241° |
| 2026-04-29 19:43 | 27.68591 | -15.03094 | 7055 ft | 272 kts | 244° |
| 2026-04-29 19:43 | 27.67768 | -15.05028 | 7075 ft | 273 kts | 244° |
| 2026-04-29 19:43 | 27.66937 | -15.06957 | 7071 ft | 273 kts | 244° |
| 2026-04-29 19:44 | 27.66103 | -15.08887 | 7057 ft | 273 kts | 244° |
| 2026-04-29 19:44 | 27.65269 | -15.10805 | 7085 ft | 273 kts | 244° |
| 2026-04-29 19:44 | 27.64430 | -15.12729 | 7057 ft | 273 kts | 244° |
| 2026-04-29 19:44 | 27.63917 | -15.14023 | 7081 ft | 273 kts | 250° |
| 2026-04-29 19:45 | 27.63894 | -15.16723 | 7077 ft | 255 kts | 286° |
| 2026-04-29 19:45 | 27.64530 | -15.18533 | 7019 ft | 244 kts | 291° |
| 2026-04-29 19:45 | 27.64973 | -15.19696 | 6927 ft | 242 kts | 291° |
| 2026-04-29 19:45 | 27.65626 | -15.21443 | 6710 ft | 241 kts | 291° |
| 2026-04-29 19:46 | 27.66270 | -15.23176 | 6431 ft | 240 kts | 290° |
| 2026-04-29 19:46 | 27.67094 | -15.25472 | 5997 ft | 236 kts | 290° |
| 2026-04-29 19:46 | 27.67503 | -15.26633 | 5764 ft | 236 kts | 290° |
| 2026-04-29 19:46 | 27.68105 | -15.28350 | 5437 ft | 235 kts | 291° |
| 2026-04-29 19:47 | 27.68708 | -15.30059 | 5100 ft | 234 kts | 290° |
| 2026-04-29 19:47 | 27.69170 | -15.31381 | 4845 ft | 234 kts | 291° |
| 2026-04-29 19:47 | 27.69769 | -15.33088 | 4520 ft | 234 kts | 291° |
| 2026-04-29 19:47 | 27.70364 | -15.34795 | 4205 ft | 233 kts | 291° |
| 2026-04-29 19:48 | 27.70954 | -15.36488 | 4002 ft | 229 kts | 291° |
| 2026-04-29 19:48 | 27.71523 | -15.38136 | 3844 ft | 219 kts | 291° |
| 2026-04-29 19:48 | 27.72075 | -15.39705 | 3689 ft | 211 kts | 292° |
| 2026-04-29 19:48 | 27.72611 | -15.41233 | 3404 ft | 208 kts | 291° |
| 2026-04-29 19:49 | 27.73262 | -15.42686 | 3070 ft | 207 kts | 308° |
| 2026-04-29 19:49 | 27.74373 | -15.43662 | 2737 ft | 206 kts | 334° |
| 2026-04-29 19:49 | 27.75657 | -15.44309 | 2538 ft | 196 kts | 336° |
| 2026-04-29 19:49 | 27.76902 | -15.44931 | 2402 ft | 195 kts | 336° |
| 2026-04-29 19:50 | 27.78195 | -15.45246 | 2281 ft | 186 kts | 5° |
| 2026-04-29 19:50 | 27.79361 | -15.44851 | 2304 ft | 167 kts | 24° |
| 2026-04-29 19:50 | 27.80420 | -15.44324 | 2299 ft | 166 kts | 21° |
| 2026-04-29 19:50 | 27.81490 | -15.43838 | 2251 ft | 165 kts | 20° |
| 2026-04-29 19:51 | 27.82536 | -15.43373 | 2105 ft | 152 kts | 21° |
| 2026-04-29 19:51 | 27.83493 | -15.42950 | 1917 ft | 147 kts | 20° |
| 2026-04-29 19:51 | 27.84440 | -15.42531 | 1711 ft | 144 kts | 22° |
| 2026-04-29 19:51 | 27.85370 | -15.42120 | 1508 ft | 143 kts | 22° |
| 2026-04-29 19:52 | 27.86300 | -15.41708 | 1307 ft | 144 kts | 22° |
| 2026-04-29 19:52 | 27.87238 | -15.41292 | 1108 ft | 145 kts | 22° |
| 2026-04-29 19:52 | 27.88163 | -15.40879 | 922 ft | 144 kts | 23° |
| 2026-04-29 19:52 | 27.89095 | -15.40458 | 743 ft | 145 kts | 22° |
| 2026-04-29 19:53 | 27.90004 | -15.40060 | 528 ft | 143 kts | 21° |
| 2026-04-29 19:53 | 27.90956 | -15.39650 | 369 ft | 143 kts | 22° |
| 2026-04-29 19:53 | 27.91880 | -15.39238 | 152 ft | 142 kts | 22° |
| 2026-04-29 19:53 | 27.92761 | -15.38847 | 70 ft | 126 kts | 20° |
| 2026-04-29 19:54 | 27.93673 | -15.38447 | 61 ft | 18 kts | 20° |
| 2026-04-29 19:54 | 27.93807 | -15.38426 | 64 ft | 21 kts | 2° |
| 2026-04-29 19:54 | 27.93942 | -15.38441 | 67 ft | 14 kts | 356° |
| 2026-04-29 19:55 | 27.94017 | -15.38462 | 68 ft | 14 kts | 325° |
| 2026-04-29 19:55 | 27.94067 | -15.38553 | 81 ft | 13 kts | 289° |
| 2026-04-29 19:55 | 27.94072 | -15.38616 | 86 ft | 10 kts | 231° |
| 2026-04-29 19:55 | 27.93995 | -15.38662 | 92 ft | 15 kts | 206° |
| 2026-04-29 19:56 | 27.93917 | -15.38694 | 93 ft | 8 kts | 201° |
| 2026-04-29 19:56 | 27.93850 | -15.38724 | 91 ft | 12 kts | 201° |
| 2026-04-29 19:56 | 27.93761 | -15.38762 | 90 ft | 15 kts | 201° |
| 2026-04-29 19:56 | 27.93651 | -15.38811 | 93 ft | 19 kts | 201° |
| 2026-04-29 19:57 | 27.93589 | -15.38841 | 92 ft | 5 kts | 220° |
| 2026-04-29 19:57 | 27.93583 | -15.38868 | 89 ft | 7 kts | 283° |
| 2026-04-29 19:57 | 27.93603 | -15.38919 | 90 ft | 1 kts | 290° |
| 2026-04-29 19:57 | 27.93604 | -15.38922 | 91 ft | 1 kts | 292° |
| 2026-04-29 19:58 | 27.93606 | -15.38928 | 90 ft | 0 kts | 293° |